Time;durP1;ratioP1;P1;durP2;ratioP2;P2;SDS_P1;SDS_P2;PMS_P1;PMS_P2;Temp;Humidity;BMP_temperature;BMP_pressure;BME280_temperature;BME280_humidity;BME280_pressure;Samples;Min_cycle;Max_cycle;Signal;HPM_P1;HPM_P2
2023/04/03 00:01:42;;;;;;;;;;;;;;;20.55;38.20;103054.91;4970318;28;19914;-72
2023/04/03 00:04:07;;;;;;;;;;;;;;;20.53;38.39;103062.28;4964206;28;19922;-73
2023/04/03 00:06:33;;;;;;;;;;;;;;;20.51;38.10;103057.00;4970109;28;19914;-72
2023/04/03 00:08:58;;;;;;;;;;;;;;;20.49;38.12;103058.97;4967203;28;19914;-72
2023/04/03 00:11:23;;;;;;;;;;;;;;;20.47;38.33;103052.78;4967778;28;19921;-72
2023/04/03 00:13:49;;;;;;;;;;;;;;;20.46;37.95;103053.78;4964965;28;19913;-73
2023/04/03 00:16:14;;;;;;;;;;;;;;;20.43;37.99;103057.63;4967395;28;19914;-73
2023/04/03 00:18:40;;;;;;;;;;;;;;;20.42;38.07;103061.28;4964643;28;19949;-72
2023/04/03 00:21:05;;;;;;;;;;;;;;;20.40;38.14;103063.25;4972937;28;20398;-71
2023/04/03 00:23:30;;;;;;;;;;;;;;;20.38;37.92;103065.22;4966451;28;19970;-72
2023/04/03 00:25:56;;;;;;;;;;;;;;;20.37;37.99;103063.50;4970870;28;19921;-74
2023/04/03 00:28:21;;;;;;;;;;;;;;;20.35;38.12;103076.31;4964167;28;20326;-73
2023/04/03 00:30:46;;;;;;;;;;;;;;;20.33;38.25;103072.00;4957586;28;19920;-72
2023/04/03 00:33:12;;;;;;;;;;;;;;;20.32;38.16;103070.28;4969539;28;20573;-72
2023/04/03 00:35:38;;;;;;;;;;;;;;;20.30;38.31;103069.53;4959204;28;19915;-72
2023/04/03 00:38:03;;;;;;;;;;;;;;;20.27;38.06;103065.25;4964822;28;20286;-72
2023/04/03 00:40:32;;;;;;;;;;;;;;;20.27;38.35;103070.66;4964937;28;19973;-72
2023/04/03 00:42:58;;;;;;;;;;;;;;;20.26;38.29;103070.78;4967537;28;19918;-72
2023/04/03 00:45:25;;;;;;;;;;;;;;;20.24;38.15;103068.19;4966826;28;19929;-73
2023/04/03 00:47:51;;;;;;;;;;;;;;;20.22;38.24;103070.19;4970518;28;19914;-73
2023/04/03 00:50:16;;;;;;;;;;;;;;;20.20;38.17;103072.13;4971895;28;19928;-73
2023/04/03 00:52:41;;;;;;;;;;;;;;;20.19;38.27;103073.13;4969162;28;20327;-73
2023/04/03 00:55:07;;;;;;;;;;;;;;;20.15;37.90;103077.91;4968032;28;19919;-73
2023/04/03 00:57:32;;;;;;;;;;;;;;;20.14;38.12;103078.91;4970264;28;19922;-72
2023/04/03 01:00:00;;;;;;;;;;;;;;;20.14;38.37;103086.16;4974044;28;19919;-73
2023/04/03 01:02:25;;;;;;;;;;;;;;;20.12;37.98;103086.25;4958074;28;20000;-72
2023/04/03 01:04:51;;;;;;;;;;;;;;;20.10;38.18;103082.84;4966808;28;20616;-74
2023/04/03 01:28:37;;;;;;;;;;;;;;;19.94;38.35;103095.84;4972030;28;19929;-74
2023/04/03 01:31:06;;;;;;;;;;;;;;;19.91;38.54;103091.53;4943575;28;19918;-73
2023/04/03 01:33:31;;;;;;;;;;;;;;;19.90;38.16;103092.53;4974726;28;19914;-73
2023/04/03 01:35:56;;;;;;;;;;;;;;;19.89;38.30;103098.06;4966982;28;19961;-73
2023/04/03 01:38:22;;;;;;;;;;;;;;;19.87;38.31;103100.00;4966671;28;19919;-73
2023/04/03 01:40:47;;;;;;;;;;;;;;;19.86;38.09;103099.16;4969800;28;19918;-71
2023/04/03 01:43:12;;;;;;;;;;;;;;;19.83;38.20;103093.13;4967897;28;19925;-74
2023/04/03 01:45:37;;;;;;;;;;;;;;;19.82;38.36;103091.41;4963073;28;19914;-73
2023/04/03 01:48:02;;;;;;;;;;;;;;;19.81;38.21;103092.41;4974553;28;19914;-73
2023/04/03 01:50:28;;;;;;;;;;;;;;;19.78;38.38;103096.19;4968463;28;19913;-73
2023/04/03 01:52:53;;;;;;;;;;;;;;;19.77;38.51;103099.88;4959579;28;20127;-72
2023/04/03 01:55:18;;;;;;;;;;;;;;;19.74;38.26;103092.03;4969851;28;19918;-72
2023/04/03 01:57:43;;;;;;;;;;;;;;;19.73;38.26;103101.09;4959600;28;20364;-73
2023/04/03 02:00:09;;;;;;;;;;;;;;;19.72;38.46;103102.09;4969940;28;19925;-73
2023/04/03 02:02:34;;;;;;;;;;;;;;;19.70;38.47;103102.19;4965978;28;19926;-73
2023/04/03 02:05:00;;;;;;;;;;;;;;;19.67;38.30;103112.41;4957254;28;19915;-74
2023/04/03 02:07:25;;;;;;;;;;;;;;;19.66;38.51;103110.66;4967222;28;19915;-73
2023/04/03 02:09:50;;;;;;;;;;;;;;;19.64;38.55;103112.63;4964615;28;19918;-73
2023/04/03 02:12:15;;;;;;;;;;;;;;;19.63;38.44;103116.31;4962853;28;19982;-74
2023/04/03 02:14:40;;;;;;;;;;;;;;;19.61;38.40;103116.41;4970358;28;19921;-73
2023/04/03 02:17:08;;;;;;;;;;;;;;;19.60;38.50;103111.13;4959215;28;19915;-72
2023/04/03 02:19:34;;;;;;;;;;;;;;;19.58;38.61;103119.34;4969464;28;19914;-72
2023/04/03 02:21:59;;;;;;;;;;;;;;;19.57;38.53;103120.28;4969973;28;20019;-73
2023/04/03 02:24:24;;;;;;;;;;;;;;;19.55;38.62;103119.56;4963096;28;19922;-72
2023/04/03 02:26:49;;;;;;;;;;;;;;;19.53;38.43;103118.81;4970256;28;19925;-73
2023/04/03 02:29:15;;;;;;;;;;;;;;;19.53;38.42;103109.84;4969581;28;19918;-72
2023/04/03 02:31:40;;;;;;;;;;;;;;;19.51;38.69;103109.13;4968481;28;19914;-72
2023/04/03 02:34:05;;;;;;;;;;;;;;;19.49;38.65;103117.31;4969425;28;19918;-73
2023/04/03 02:36:30;;;;;;;;;;;;;;;19.48;38.39;103112.91;4968179;28;19918;-72
2023/04/03 02:38:56;;;;;;;;;;;;;;;19.45;38.66;103122.13;4968055;28;19918;-74
2023/04/03 02:41:21;;;;;;;;;;;;;;;19.45;38.48;103115.84;4965704;28;19921;-73
2023/04/03 02:43:46;;;;;;;;;;;;;;;19.44;38.61;103124.94;4973423;28;19921;-72
2023/04/03 02:46:13;;;;;;;;;;;;;;;19.41;38.78;103128.75;4942394;28;20153;-72
2023/04/03 02:48:39;;;;;;;;;;;;;;;19.40;38.68;103126.13;4976018;28;19946;-72
2023/04/03 02:51:04;;;;;;;;;;;;;;;19.39;38.82;103122.59;4968007;28;19930;-73
2023/04/03 02:53:29;;;;;;;;;;;;;;;19.37;38.66;103123.66;4959595;28;19946;-74
2023/04/03 02:55:55;;;;;;;;;;;;;;;19.36;38.69;103121.97;4967879;28;19918;-74
2023/04/03 02:58:20;;;;;;;;;;;;;;;19.34;38.82;103126.63;4961476;28;20329;-74
2023/04/03 03:00:45;;;;;;;;;;;;;;;19.32;38.67;103125.88;4967591;28;19914;-72
2023/04/03 03:03:10;;;;;;;;;;;;;;;19.30;38.63;103139.47;4965911;28;20000;-72
2023/04/03 03:05:36;;;;;;;;;;;;;;;19.30;38.84;103138.63;4970375;28;19974;-73
2023/04/03 03:08:01;;;;;;;;;;;;;;;19.28;38.73;103133.31;4963660;28;19918;-73
2023/04/03 03:10:26;;;;;;;;;;;;;;;19.26;38.47;103138.00;4970926;28;20461;-73
2023/04/03 03:12:51;;;;;;;;;;;;;;;19.26;38.86;103142.53;4967329;28;19937;-72
2023/04/03 03:15:17;;;;;;;;;;;;;;;19.23;38.83;103143.63;4968459;28;19937;-73
2023/04/03 03:17:42;;;;;;;;;;;;;;;19.22;38.69;103140.06;4971658;28;19918;-73
2023/04/03 03:20:08;;;;;;;;;;;;;;;19.20;38.92;103147.41;4966859;28;19925;-72
2023/04/03 03:22:35;;;;;;;;;;;;;;;19.19;38.89;103142.97;4969113;28;19972;-72
2023/04/03 03:25:00;;;;;;;;;;;;;;;19.19;38.70;103155.59;4961962;28;19914;-73
2023/04/03 03:27:26;;;;;;;;;;;;;;;19.17;39.01;103155.72;4965963;28;19925;-74
2023/04/03 03:29:51;;;;;;;;;;;;;;;19.16;38.76;103148.63;4959515;28;20339;-71
2023/04/03 03:32:16;;;;;;;;;;;;;;;19.16;38.91;103145.94;4966198;28;19922;-72
2023/04/03 03:34:41;;;;;;;;;;;;;;;19.15;38.93;103151.41;4965016;28;19919;-72
2023/04/03 03:37:07;;;;;;;;;;;;;;;19.14;38.83;103158.66;4969046;28;19925;-73
2023/04/03 03:39:32;;;;;;;;;;;;;;;19.13;38.71;103156.94;4951364;28;19925;-74
2023/04/03 03:41:57;;;;;;;;;;;;;;;19.13;38.74;103156.94;4960075;28;19926;-74
2023/04/03 03:44:22;;;;;;;;;;;;;;;19.13;38.68;103162.34;4959286;28;19919;-73
2023/04/03 03:46:47;;;;;;;;;;;;;;;19.13;38.67;103161.47;4964827;28;19921;-73
2023/04/03 03:49:13;;;;;;;;;;;;;;;19.13;38.83;103165.03;4972565;28;19915;-73
2023/04/03 03:51:38;;;;;;;;;;;;;;;19.13;38.61;103169.56;4964737;28;19926;-73
2023/04/03 03:54:04;;;;;;;;;;;;;;;19.13;38.55;103156.94;4965903;28;19914;-73
2023/04/03 03:56:29;;;;;;;;;;;;;;;19.13;38.79;103158.78;4972150;28;19980;-72
2023/04/03 03:58:56;;;;;;;;;;;;;;;19.13;38.56;103162.34;4964928;28;19973;-72
2023/04/03 04:01:22;;;;;;;;;;;;;;;19.13;38.75;103154.25;4961262;28;19957;-73
2023/04/03 04:03:47;;;;;;;;;;;;;;;19.13;38.81;103162.34;4977206;28;19922;-74
2023/04/03 04:06:12;;;;;;;;;;;;;;;19.14;38.52;103171.28;4964798;28;19926;-74
2023/04/03 04:08:37;;;;;;;;;;;;;;;19.14;38.76;103168.59;4956124;28;19915;-73
2023/04/03 04:11:02;;;;;;;;;;;;;;;19.14;38.39;103172.13;4966067;28;19918;-72
2023/04/03 04:13:28;;;;;;;;;;;;;;;19.14;38.47;103166.75;4968461;28;20375;-72
2023/04/03 04:15:53;;;;;;;;;;;;;;;19.16;38.55;103172.03;4969122;28;19914;-71
2023/04/03 04:18:19;;;;;;;;;;;;;;;19.15;38.60;103164.91;4975496;28;19914;-73
2023/04/03 04:20:45;;;;;;;;;;;;;;;19.16;38.33;103177.44;4960292;28;20062;-73
2023/04/03 04:23:10;;;;;;;;;;;;;;;19.16;38.61;103181.00;4976744;28;19923;-68
2023/04/03 04:25:35;;;;;;;;;;;;;;;19.16;38.73;103169.34;4961630;28;19962;-72
2023/04/03 04:28:01;;;;;;;;;;;;;;;19.18;38.59;103173.63;4966057;28;19915;-73
2023/04/03 04:30:27;;;;;;;;;;;;;;;19.19;38.92;103169.94;4971147;28;20511;-73
2023/04/03 04:32:52;;;;;;;;;;;;;;;19.21;39.07;103175.25;4968447;28;19918;-72
2023/04/03 04:35:17;;;;;;;;;;;;;;;19.22;38.96;103185.03;4964116;28;19937;-72
2023/04/03 04:37:43;;;;;;;;;;;;;;;19.22;39.02;103194.00;4970228;28;19919;-73
2023/04/03 04:40:08;;;;;;;;;;;;;;;19.23;39.27;103195.72;4967448;28;19921;-72
2023/04/03 04:42:34;;;;;;;;;;;;;;;19.23;39.14;103187.63;4967669;28;19926;-73
2023/04/03 04:44:59;;;;;;;;;;;;;;;19.25;39.36;103192.91;4976196;28;19928;-72
2023/04/03 04:47:24;;;;;;;;;;;;;;;19.25;39.07;103195.63;4960483;28;20383;-72
2023/04/03 04:49:50;;;;;;;;;;;;;;;19.30;39.50;103188.03;4980887;28;20457;-77
2023/04/03 04:52:15;;;;;;;;;;;;;;;19.33;39.34;103200.44;4962138;28;20332;-80
2023/04/03 04:54:40;;;;;;;;;;;;;;;19.34;39.52;103194.91;4968718;28;19914;-86
2023/04/03 04:57:05;;;;;;;;;;;;;;;19.35;39.22;103193.06;4971719;28;19982;-75
2023/04/03 04:59:30;;;;;;;;;;;;;;;19.37;39.46;103189.28;4955808;28;19939;-74
2023/04/03 05:01:56;;;;;;;;;;;;;;;19.39;39.15;103197.25;4960457;28;19919;-74
2023/04/03 05:04:21;;;;;;;;;;;;;;;19.41;39.12;103193.47;4958198;28;19969;-76
2023/04/03 05:06:46;;;;;;;;;;;;;;;19.43;39.24;103196.91;4966970;28;19914;-72
2023/04/03 05:09:12;;;;;;;;;;;;;;;19.45;38.90;103194.97;4960377;28;19933;-71
2023/04/03 05:11:37;;;;;;;;;;;;;;;19.45;38.97;103203.06;4973816;28;19924;-72
2023/04/03 05:14:05;;;;;;;;;;;;;;;19.47;38.96;103198.41;4970591;28;19922;-71
2023/04/03 05:16:30;;;;;;;;;;;;;;;19.50;39.20;103213.50;4973665;28;19917;-72
2023/04/03 05:18:55;;;;;;;;;;;;;;;19.51;39.19;103211.66;4969706;28;19966;-72
2023/04/03 05:21:23;;;;;;;;;;;;;;;19.51;39.26;103215.22;4962516;28;20013;-70
2023/04/03 05:23:51;;;;;;;;;;;;;;;19.53;39.25;103213.25;4969838;28;19988;-72
2023/04/03 05:26:16;;;;;;;;;;;;;;;19.54;39.16;103220.41;4966172;28;19921;-73
2023/04/03 05:28:41;;;;;;;;;;;;;;;19.57;39.34;103214.75;4976771;28;19914;-73
2023/04/03 05:31:06;;;;;;;;;;;;;;;19.58;39.02;103215.59;4968195;28;19917;-71
2023/04/03 05:33:31;;;;;;;;;;;;;;;19.59;38.90;103225.44;4972989;28;19942;-72
2023/04/03 05:36:01;;;;;;;;;;;;;;;19.60;39.05;103219.91;4962203;28;19930;-71
2023/04/03 05:38:26;;;;;;;;;;;;;;;19.61;39.16;103220.81;4975362;28;19915;-71
2023/04/03 05:40:51;;;;;;;;;;;;;;;19.63;38.78;103217.03;4964024;28;19946;-72
2023/04/03 05:43:17;;;;;;;;;;;;;;;19.64;38.95;103223.28;4962827;28;19914;-72
2023/04/03 05:45:42;;;;;;;;;;;;;;;19.65;38.82;103222.28;4971117;28;19918;-73
2023/04/03 05:48:07;;;;;;;;;;;;;;;19.65;38.74;103222.28;4964338;28;19910;-73
2023/04/03 05:50:33;;;;;;;;;;;;;;;19.65;38.73;103233.94;4972457;28;19910;-72
2023/04/03 05:52:58;;;;;;;;;;;;;;;19.65;38.62;103236.63;4966071;28;20061;-72
2023/04/03 05:55:23;;;;;;;;;;;;;;;19.67;38.35;103239.25;4952472;28;19937;-73
2023/04/03 05:57:49;;;;;;;;;;;;;;;19.68;38.54;103235.56;4965968;28;19922;-71
2023/04/03 06:00:15;;;;;;;;;;;;;;;19.68;38.30;103244.50;4965503;28;19918;-72
2023/04/03 06:02:41;;;;;;;;;;;;;;;19.70;38.54;103245.25;4963292;28;19922;-71
2023/04/03 06:05:07;;;;;;;;;;;;;;;19.68;38.33;103255.31;4968860;28;19919;-72
2023/04/03 06:07:32;;;;;;;;;;;;;;;19.70;38.24;103249.78;4970077;28;19922;-72
2023/04/03 06:09:57;;;;;;;;;;;;;;;19.69;38.63;103245.38;4960155;28;19918;-75
2023/04/03 06:12:22;;;;;;;;;;;;;;;19.71;38.60;103246.13;4970130;28;19914;-71
2023/04/03 06:14:51;;;;;;;;;;;;;;;19.72;38.22;103256.78;4956094;28;19935;-73
2023/04/03 06:17:17;;;;;;;;;;;;;;;19.74;38.21;103251.28;4969264;28;19914;-72
2023/04/03 06:19:42;;;;;;;;;;;;;;;19.75;38.49;103249.44;4960756;28;20043;-72
2023/04/03 06:22:08;;;;;;;;;;;;;;;19.76;38.29;103251.16;4958921;28;19914;-72
2023/04/03 06:24:33;;;;;;;;;;;;;;;19.78;38.15;103252.75;4966205;28;19990;-73
2023/04/03 06:26:58;;;;;;;;;;;;;;;19.78;38.19;103252.75;4966783;28;19925;-71
2023/04/03 06:29:23;;;;;;;;;;;;;;;19.80;37.94;103260.75;4963837;28;19922;-72
2023/04/03 06:31:49;;;;;;;;;;;;;;;19.79;38.00;103259.88;4967246;28;20015;-72
2023/04/03 06:34:15;;;;;;;;;;;;;;;19.80;37.93;103255.34;4957634;28;19915;-73
2023/04/03 06:36:40;;;;;;;;;;;;;;;19.79;38.02;103267.97;4957100;28;19919;-70
2023/04/03 06:39:06;;;;;;;;;;;;;;;19.81;37.96;103259.78;4973010;28;19914;-72
2023/04/03 06:41:31;;;;;;;;;;;;;;;19.81;37.93;103266.03;4969461;28;19925;-72
2023/04/03 06:43:57;;;;;;;;;;;;;;;19.82;38.15;103277.69;4965754;28;19929;-71
2023/04/03 06:46:23;;;;;;;;;;;;;;;19.82;37.79;103273.16;4971046;28;19918;-71
2023/04/03 06:48:48;;;;;;;;;;;;;;;19.83;37.75;103274.84;4966192;28;19937;-71
2023/04/03 06:51:18;;;;;;;;;;;;;;;19.84;37.71;103273.91;4964918;28;19918;-71
2023/04/03 06:53:43;;;;;;;;;;;;;;;19.85;37.71;103277.47;4951043;28;19928;-71
2023/04/03 06:56:09;;;;;;;;;;;;;;;19.87;37.89;103284.44;4965454;28;19950;-73
2023/04/03 06:58:34;;;;;;;;;;;;;;;19.87;38.09;103287.13;4961218;28;20349;-72
2023/04/03 07:00:59;;;;;;;;;;;;;;;19.88;37.57;103290.69;4968212;28;19918;-73
2023/04/03 07:03:25;;;;;;;;;;;;;;;19.89;37.86;103290.59;4957656;28;19919;-72
2023/04/03 07:05:50;;;;;;;;;;;;;;;19.90;37.54;103295.00;4966491;28;19914;-73
2023/04/03 07:08:15;;;;;;;;;;;;;;;19.91;37.50;103307.53;4960854;28;19918;-73
2023/04/03 07:10:40;;;;;;;;;;;;;;;19.92;37.66;103290.38;4961705;28;19969;-73
2023/04/03 07:13:06;;;;;;;;;;;;;;;19.93;37.77;103302.88;4972514;28;20095;-71
2023/04/03 07:15:31;;;;;;;;;;;;;;;19.95;37.33;103306.31;4964241;28;19969;-71
2023/04/03 07:17:56;;;;;;;;;;;;;;;19.97;37.64;103303.53;4967950;28;19922;-72
2023/04/03 07:20:21;;;;;;;;;;;;;;;19.98;37.44;103300.69;4967752;28;19918;-73
2023/04/03 07:22:47;;;;;;;;;;;;;;;19.99;37.46;103304.25;4968189;28;20011;-73
2023/04/03 07:25:12;;;;;;;;;;;;;;;20.01;37.65;103301.41;4966584;28;19985;-72
2023/04/03 07:27:37;;;;;;;;;;;;;;;20.04;37.13;103299.34;4970869;28;19993;-73
2023/04/03 07:30:02;;;;;;;;;;;;;;;20.05;37.35;103302.91;4962270;28;19918;-72
2023/04/03 07:32:28;;;;;;;;;;;;;;;20.06;37.16;103305.50;4965897;28;20387;-72
2023/04/03 07:34:53;;;;;;;;;;;;;;;20.08;37.34;103303.53;4969742;28;19954;-74
2023/04/03 07:37:19;;;;;;;;;;;;;;;20.10;36.90;103301.59;4953755;28;19922;-73
2023/04/03 07:39:44;;;;;;;;;;;;;;;20.11;36.95;103310.56;4960833;28;19919;-71
2023/04/03 07:42:10;;;;;;;;;;;;;;;20.13;37.33;103314.84;4970641;28;19920;-72
2023/04/03 07:44:35;;;;;;;;;;;;;;;20.15;37.40;103312.91;4962758;28;19925;-72
2023/04/03 07:47:00;;;;;;;;;;;;;;;20.18;37.12;103311.81;4964429;28;19925;-71
2023/04/03 07:49:26;;;;;;;;;;;;;;;20.18;36.96;103315.38;4959187;28;19914;-73
2023/04/03 07:51:51;;;;;;;;;;;;;;;20.21;37.06;103314.25;4963305;28;19921;-73
2023/04/03 07:54:16;;;;;;;;;;;;;;;20.23;37.09;103326.66;4968215;28;19918;-72
2023/04/03 07:56:42;;;;;;;;;;;;;;;20.26;37.06;103327.41;4954025;28;19950;-73
2023/04/03 07:59:08;;;;;;;;;;;;;;;20.26;36.96;103320.16;4965104;28;19914;-73
2023/04/03 08:01:33;;;;;;;;;;;;;;;20.29;36.90;103329.88;4966059;28;19920;-72
2023/04/03 08:03:59;;;;;;;;;;;;;;;20.30;36.75;103327.03;4960080;28;19918;-73
2023/04/03 08:06:24;;;;;;;;;;;;;;;20.31;36.60;103333.34;4969672;28;19919;-72
2023/04/03 08:08:49;;;;;;;;;;;;;;;20.33;36.49;103328.66;4966254;28;19969;-73
2023/04/03 08:11:14;;;;;;;;;;;;;;;20.35;36.64;103343.78;4962442;28;19926;-73
2023/04/03 08:13:41;;;;;;;;;;;;;;;20.36;36.35;103334.69;4972489;28;19915;-74
2023/04/03 08:16:14;;;;;;;;;;;;;;;20.38;36.58;103337.25;4965716;28;19921;-73
2023/04/03 08:18:39;;;;;;;;;;;;;;;20.38;36.29;103338.13;4959907;28;19914;-73
2023/04/03 08:21:05;;;;;;;;;;;;;;;20.42;36.64;103333.34;4962365;28;19969;-74
2023/04/03 08:23:30;;;;;;;;;;;;;;;20.42;36.48;103336.91;4968199;28;19965;-75
2023/04/03 08:25:56;;;;;;;;;;;;;;;20.45;36.53;103335.81;4959090;28;19918;-70
2023/04/03 08:28:21;;;;;;;;;;;;;;;20.47;36.59;103339.22;4964890;28;19918;-71
2023/04/03 08:30:46;;;;;;;;;;;;;;;20.49;36.68;103339.16;4961948;28;19914;-73
2023/04/03 08:33:11;;;;;;;;;;;;;;;20.52;36.71;103338.91;4972632;28;19960;-72
2023/04/03 08:35:40;;;;;;;;;;;;;;;20.54;36.44;103339.66;4968948;28;19918;-76
2023/04/03 08:38:05;;;;;;;;;;;;;;;20.57;36.65;103334.03;4958989;28;19921;-72
2023/04/03 08:40:31;;;;;;;;;;;;;;;20.60;36.49;103339.16;4965750;28;20013;-72
2023/04/03 08:42:56;;;;;;;;;;;;;;;20.61;36.66;103347.19;4956122;28;19922;-74
2023/04/03 08:45:21;;;;;;;;;;;;;;;20.63;36.62;103336.22;4961769;28;19914;-69
2023/04/03 08:47:49;;;;;;;;;;;;;;;20.64;36.36;103338.81;4961235;28;19918;-75
2023/04/03 08:50:18;;;;;;;;;;;;;;;20.65;36.33;103339.69;4961500;28;19919;-72
2023/04/03 08:52:45;;;;;;;;;;;;;;;20.66;36.35;103344.09;4963832;28;19918;-72
2023/04/03 08:55:23;;;;;;;;;;;;;;;20.69;36.40;103344.72;4965988;28;20452;-73
2023/04/03 08:57:48;;;;;;;;;;;;;;;20.70;36.29;103338.34;4965520;28;19929;-74
2023/04/03 09:00:13;;;;;;;;;;;;;;;20.73;36.13;103339.94;4965183;28;19918;-73
2023/04/03 09:02:48;;;;;;;;;;;;;;;20.74;36.13;103341.66;4966436;28;19914;-74
2023/04/03 09:05:18;;;;;;;;;;;;;;;20.76;36.19;103341.53;4953553;28;19918;-73
2023/04/03 09:07:47;;;;;;;;;;;;;;;20.79;35.92;103341.28;4967834;28;20078;-73
2023/04/03 09:10:13;;;;;;;;;;;;;;;20.80;36.07;103343.84;4969665;28;19918;-73
2023/04/03 09:12:46;;;;;;;;;;;;;;;20.82;35.84;103341.91;4971095;28;19915;-72
2023/04/03 09:15:11;;;;;;;;;;;;;;;20.84;35.78;103339.06;4970830;28;19917;-73
2023/04/03 09:17:52;;;;;;;;;;;;;;;20.87;35.74;103336.13;4969449;28;19925;-72
2023/04/03 09:20:33;;;;;;;;;;;;;;;20.88;35.69;103336.00;4964199;28;19914;-72
2023/04/03 09:22:59;;;;;;;;;;;;;;;20.90;35.57;103336.75;4973768;28;19990;-73
2023/04/03 09:25:28;;;;;;;;;;;;;;;20.92;35.90;103329.34;4963703;28;20376;-72
2023/04/03 09:27:54;;;;;;;;;;;;;;;20.94;35.84;103342.75;4972601;28;19910;-72
2023/04/03 09:30:23;;;;;;;;;;;;;;;20.96;35.50;103338.94;4970920;28;19918;-73
2023/04/03 09:32:50;;;;;;;;;;;;;;;20.98;35.82;103328.00;4959043;28;19921;-73
2023/04/03 09:35:18;;;;;;;;;;;;;;;21.01;35.52;103327.75;4973995;28;19933;-73
2023/04/03 09:37:44;;;;;;;;;;;;;;;21.02;35.71;103334.03;4957051;28;19922;-73
2023/04/03 09:40:30;;;;;;;;;;;;;;;21.06;35.66;103327.38;4966430;28;19914;-72
2023/04/03 09:42:56;;;;;;;;;;;;;;;21.09;35.58;103325.28;4954820;28;19922;-73
2023/04/03 09:45:29;;;;;;;;;;;;;;;21.12;35.28;103326.91;4968706;28;19965;-73
2023/04/03 09:48:04;;;;;;;;;;;;;;;21.16;35.14;103320.25;4963148;28;19953;-73
2023/04/03 09:50:30;;;;;;;;;;;;;;;21.19;35.40;103320.84;4969211;28;19918;-72
2023/04/03 09:52:55;;;;;;;;;;;;;;;21.20;35.13;103310.91;4967258;28;20342;-72
2023/04/03 09:55:26;;;;;;;;;;;;;;;21.23;35.02;103310.63;4971344;28;19922;-72
2023/04/03 09:57:52;;;;;;;;;;;;;;;21.24;35.10;103320.50;4963093;28;19914;-72
2023/04/03 10:00:21;;;;;;;;;;;;;;;21.30;34.58;103306.44;4968309;28;19938;-73
2023/04/03 10:02:50;;;;;;;;;;;;;;;21.31;34.71;103307.31;4971996;28;19980;-72
2023/04/03 10:05:30;;;;;;;;;;;;;;;21.37;34.41;103305.00;4969395;28;19945;-73
2023/04/03 10:08:19;;;;;;;;;;;;;;;21.40;34.64;103298.44;4968727;28;20383;-73
2023/04/03 10:10:45;;;;;;;;;;;;;;;21.44;34.16;103297.22;4964696;28;19914;-73
2023/04/03 10:13:16;;;;;;;;;;;;;;;21.48;34.39;103301.38;4968783;28;19922;-74
2023/04/03 10:15:54;;;;;;;;;;;;;;;21.52;34.35;103291.16;4972843;28;19946;-72
2023/04/03 10:18:28;;;;;;;;;;;;;;;21.57;34.03;103295.19;4966936;28;19957;-73
2023/04/03 10:20:53;;;;;;;;;;;;;;;21.60;34.17;103292.25;4966726;28;19961;-72
2023/04/03 10:23:22;;;;;;;;;;;;;;;21.63;34.11;103289.28;4964639;28;19919;-73
2023/04/03 10:26:06;;;;;;;;;;;;;;;21.65;33.95;103294.56;4961514;28;20287;-73
2023/04/03 10:28:44;;;;;;;;;;;;;;;21.66;33.79;103293.56;4970713;28;19917;-73
2023/04/03 10:31:26;;;;;;;;;;;;;;;21.71;33.69;103288.66;4964193;28;19918;-71
2023/04/03 10:33:51;;;;;;;;;;;;;;;21.75;33.72;103272.97;4970987;28;19933;-72
2023/04/03 10:36:23;;;;;;;;;;;;;;;21.81;33.99;103275.19;4969479;28;20295;-75
2023/04/03 10:38:51;;;;;;;;;;;;;;;21.87;33.63;103277.34;4965170;28;19918;-72
2023/04/03 10:41:25;;;;;;;;;;;;;;;21.88;33.80;103279.94;4962751;28;20388;-71
2023/04/03 10:43:52;;;;;;;;;;;;;;;21.91;34.07;103267.97;4965706;28;19944;-72
2023/04/03 10:46:20;;;;;;;;;;;;;;;21.94;34.38;103267.72;4963821;28;19925;-72
2023/04/03 10:49:01;;;;;;;;;;;;;;;21.98;34.22;103269.16;4968299;28;19918;-72
2023/04/03 10:51:31;;;;;;;;;;;;;;;22.05;34.15;103262.25;4965347;28;19914;-72
2023/04/03 10:54:06;;;;;;;;;;;;;;;22.11;34.17;103256.28;4962914;28;19918;-72
2023/04/03 10:56:39;;;;;;;;;;;;;;;22.19;34.52;103258.38;4965750;28;19915;-71
2023/04/03 10:59:12;;;;;;;;;;;;;;;22.27;34.48;103255.84;4966913;28;20407;-72
2023/04/03 11:01:38;;;;;;;;;;;;;;;22.35;34.54;103242.47;4968452;28;20367;-72
2023/04/03 11:04:04;;;;;;;;;;;;;;;22.44;34.38;103254.38;4968952;28;19991;-71
2023/04/03 11:06:56;;;;;;;;;;;;;;;22.49;34.14;103243.97;4959016;28;19921;-72
2023/04/03 11:09:21;;;;;;;;;;;;;;;22.56;34.45;103237.00;4965443;28;19918;-72
2023/04/03 11:11:47;;;;;;;;;;;;;;;22.66;34.47;103239.75;4970105;28;20008;-70
2023/04/03 11:14:39;;;;;;;;;;;;;;;22.73;34.23;103243.63;4967860;28;20351;-72
2023/04/03 11:17:23;;;;;;;;;;;;;;;22.79;34.70;103236.78;4970498;28;20021;-71
2023/04/03 11:19:54;;;;;;;;;;;;;;;22.85;34.19;103231.69;4962846;28;19929;-73
2023/04/03 11:22:22;;;;;;;;;;;;;;;22.93;34.22;103228.28;4962623;28;19973;-70
2023/04/03 11:24:52;;;;;;;;;;;;;;;23.01;34.31;103230.31;4964789;28;19929;-71
2023/04/03 11:27:21;;;;;;;;;;;;;;;23.05;34.19;103227.19;4957389;28;19918;-71
2023/04/03 11:29:47;;;;;;;;;;;;;;;23.07;34.22;103233.34;4969337;28;19918;-72
2023/04/03 11:32:26;;;;;;;;;;;;;;;23.07;34.38;103232.47;4967756;28;19918;-72
2023/04/03 11:34:53;;;;;;;;;;;;;;;23.07;34.32;103230.63;4961570;28;19986;-72
2023/04/03 11:37:28;;;;;;;;;;;;;;;23.08;34.41;103223.34;4967755;28;19922;-72
2023/04/03 11:39:56;;;;;;;;;;;;;;;23.06;34.28;103220.75;4967220;28;20014;-71
2023/04/03 11:42:27;;;;;;;;;;;;;;;23.07;34.38;103214.34;4955424;28;19918;-71
2023/04/03 11:45:13;;;;;;;;;;;;;;;23.07;34.49;103211.63;4964803;28;19918;-71
2023/04/03 11:47:50;;;;;;;;;;;;;;;23.08;34.44;103209.78;4969759;28;19918;-73
2023/04/03 11:50:34;;;;;;;;;;;;;;;23.08;34.37;103201.63;4967425;28;19914;-72
2023/04/03 11:53:00;;;;;;;;;;;;;;;23.08;34.44;103199.78;4962484;28;19915;-72
2023/04/03 11:55:31;;;;;;;;;;;;;;;23.09;34.37;103206.06;4962526;28;19915;-73
2023/04/03 11:57:56;;;;;;;;;;;;;;;23.10;34.65;103197.75;4970061;28;19921;-72
2023/04/03 12:00:40;;;;;;;;;;;;;;;23.11;34.58;103204.94;4965305;28;19999;-72
2023/04/03 12:06:14;;;;;;;;;;;;;;;23.11;34.46;103202.22;4965856;28;19921;-71
2023/04/03 12:08:40;;;;;;;;;;;;;;;23.14;34.57;103192.91;4953353;28;19977;-72
2023/04/03 12:11:08;;;;;;;;;;;;;;;23.15;34.62;103184.66;4969231;28;20004;-71
2023/04/03 12:13:33;;;;;;;;;;;;;;;23.17;34.85;103208.91;4971831;28;19921;-72
2023/04/03 12:15:59;;;;;;;;;;;;;;;23.18;34.85;103189.78;4965377;28;19949;-71
2023/04/03 12:18:55;;;;;;;;;;;;;;;23.20;34.76;103195.06;4971712;28;20011;-72
2023/04/03 12:21:24;;;;;;;;;;;;;;;23.21;34.71;103185.94;4949747;28;19919;-72
2023/04/03 12:24:23;;;;;;;;;;;;;;;23.24;34.80;103190.22;4973909;28;20012;-72
2023/04/03 12:26:50;;;;;;;;;;;;;;;23.24;34.98;103176.66;4960729;28;19922;-72
2023/04/03 12:29:20;;;;;;;;;;;;;;;23.27;35.01;103187.19;4966188;28;19982;-72
2023/04/03 12:31:48;;;;;;;;;;;;;;;23.27;34.70;103179.91;4969127;28;19936;-72
2023/04/03 12:34:26;;;;;;;;;;;;;;;23.30;35.02;103168.78;4965261;28;20038;-72
2023/04/03 12:36:57;;;;;;;;;;;;;;;23.32;34.76;103165.91;4959518;28;19935;-72
2023/04/03 12:39:26;;;;;;;;;;;;;;;23.31;34.80;103175.91;4969678;28;19921;-72
2023/04/03 12:42:02;;;;;;;;;;;;;;;23.33;35.06;103176.66;4962609;28;19914;-72
2023/04/03 12:44:30;;;;;;;;;;;;;;;23.31;34.77;103165.06;4968578;28;19936;-72
2023/04/03 12:46:57;;;;;;;;;;;;;;;23.32;34.89;103161.38;4965456;28;19914;-71
2023/04/03 12:49:29;;;;;;;;;;;;;;;23.33;34.74;103171.22;4970529;28;19966;-73
2023/04/03 12:51:54;;;;;;;;;;;;;;;23.34;34.69;103163.94;4971314;28;19918;-71
2023/04/03 12:54:21;;;;;;;;;;;;;;;23.34;34.90;103156.63;4970052;28;19921;-71
2023/04/03 12:56:46;;;;;;;;;;;;;;;23.35;35.05;103160.19;4972517;28;19918;-70
2023/04/03 12:59:20;;;;;;;;;;;;;;;23.36;34.91;103156.47;4970967;28;19920;-71
2023/04/03 13:01:55;;;;;;;;;;;;;;;23.37;35.02;103141.94;4968894;28;19914;-71